Buxton, North Carolina
Current Conditions -  °F | °C
As of 3:19 PM on Monday 24 Nov 2014 (Local Time) from KHSE Reporting Station
Haze Haze  
Wind Chill: 68°   Ceiling: 2700
Heat Index: 68°   Visibility: 3mi
Dew Point: 67°   Wind: 10mph
Humidity: 96%   Direction: 220°SW
Pressure: 29.88"   Gusts: NA
Location:  35.27°N, 75.54°W
Report Text: KHSE 242019Z AUTO 22009KT 3SM BR BKN027 BKN110 20/19 A2988 RMK AO2 T02000194 TSNO
Loading
Personal Weather Stations






























Interactive Weather Map New forecast layout! Learn more

10-Day Weather Forecast

Advertisements
Track Severe Weather on mobile